Time;durP1;ratioP1;P1;durP2;ratioP2;P2;SDS_P1;SDS_P2;PMS_P1;PMS_P2;Temp;Humidity;BMP_temperature;BMP_pressure;BME280_temperature;BME280_humidity;BME280_pressure;Samples;Min_cycle;Max_cycle;Signal;HPM_P1;HPM_P2
2022/07/28 05:14:07;;;;;;;7.05;5.35;;;;;;;;;;4245621;33;20485;-62
2022/07/28 05:16:33;;;;;;;6.85;5.03;;;;;;;;;;4245845;33;20207;-64
2022/07/28 05:18:59;;;;;;;6.55;5.07;;;;;;;;;;4245692;33;20207;-64
2022/07/28 05:21:25;;;;;;;9.73;5.22;;;;;;;;;;4245803;33;20215;-64
2022/07/28 05:23:51;;;;;;;6.25;4.20;;;;;;;;;;4245131;33;20188;-63
2022/07/28 05:26:17;;;;;;;8.82;5.30;;;;;;;;;;4245848;33;20599;-63
2022/07/28 05:28:43;;;;;;;8.48;5.15;;;;;;;;;;4245514;33;20101;-63
2022/07/28 05:31:09;;;;;;;7.05;5.62;;;;;;;;;;4232505;33;20089;-62
2022/07/28 05:33:36;;;;;;;6.47;4.93;;;;;;;;;;4220875;33;20104;-63
2022/07/28 05:36:03;;;;;;;6.50;5.57;;;;;;;;;;4245972;33;20120;-63
2022/07/28 05:38:30;;;;;;;8.70;5.53;;;;;;;;;;4232324;33;20112;-63
2022/07/28 05:40:57;;;;;;;7.62;5.47;;;;;;;;;;4245564;33;20135;-64
2022/07/28 05:43:24;;;;;;;11.38;5.35;;;;;;;;;;4245400;33;20136;-64
2022/07/28 05:45:50;;;;;;;10.20;5.75;;;;;;;;;;4245528;33;20109;-63
2022/07/28 05:48:17;;;;;;;4.90;2.87;;;;;;;;;;4246313;33;20172;-63
2022/07/28 05:50:43;;;;;;;7.93;4.70;;;;;;;;;;4247938;33;20621;-62
2022/07/28 05:53:09;;;;;;;5.15;4.03;;;;;;;;;;4247713;33;20107;-63
2022/07/28 05:55:35;;;;;;;7.28;5.32;;;;;;;;;;4247738;33;20559;-62
2022/07/28 05:58:02;;;;;;;6.12;3.90;;;;;;;;;;4234407;33;20128;-63
2022/07/28 06:00:28;;;;;;;7.20;4.20;;;;;;;;;;4247731;33;20518;-65
2022/07/28 06:02:54;;;;;;;7.10;4.93;;;;;;;;;;4222989;33;20112;-62
2022/07/28 06:05:21;;;;;;;8.13;5.22;;;;;;;;;;4234221;33;20112;-61
2022/07/28 06:07:49;;;;;;;6.72;5.43;;;;;;;;;;4247455;33;20477;-62
2022/07/28 06:10:17;;;;;;;6.87;4.43;;;;;;;;;;4247693;33;20215;-62
2022/07/28 06:12:46;;;;;;;6.10;4.85;;;;;;;;;;4247525;33;20105;-63
2022/07/28 06:15:23;;;;;;;12.95;5.15;;;;;;;;;;4234406;33;20124;-63
2022/07/28 06:17:51;;;;;;;15.27;4.87;;;;;;;;;;4234473;33;20116;-62
2022/07/28 06:20:18;;;;;;;9.25;5.00;;;;;;;;;;4234492;33;20116;-61
2022/07/28 06:22:46;;;;;;;8.38;5.97;;;;;;;;;;4234368;33;20132;-63
2022/07/28 06:25:17;;;;;;;8.02;5.40;;;;;;;;;;4233804;33;20113;-60
2022/07/28 06:27:47;;;;;;;8.55;6.12;;;;;;;;;;4247307;33;20097;-61
2022/07/28 06:30:13;;;;;;;6.70;5.30;;;;;;;;;;4247272;33;20115;-61
2022/07/28 06:32:39;;;;;;;9.02;5.93;;;;;;;;;;4247568;33;20089;-61
2022/07/28 06:35:06;;;;;;;7.05;5.50;;;;;;;;;;4234112;33;20105;-62
2022/07/28 06:37:32;;;;;;;6.32;4.95;;;;;;;;;;4234436;33;20112;-61
2022/07/28 06:39:58;;;;;;;11.07;5.60;;;;;;;;;;4247173;33;20548;-62
2022/07/28 06:42:24;;;;;;;6.75;5.78;;;;;;;;;;4247170;33;20132;-61
2022/07/28 06:44:51;;;;;;;6.55;5.45;;;;;;;;;;4234330;33;20586;-61
2022/07/28 06:47:17;;;;;;;7.22;5.40;;;;;;;;;;4247328;33;20326;-61
2022/07/28 06:49:43;;;;;;;9.15;4.90;;;;;;;;;;4247167;33;20207;-61
2022/07/28 06:52:09;;;;;;;10.40;6.10;;;;;;;;;;4247214;33;20132;-61
2022/07/28 06:54:36;;;;;;;8.00;5.93;;;;;;;;;;4246920;33;20129;-62
2022/07/28 06:57:02;;;;;;;10.80;6.47;;;;;;;;;;4247211;33;20572;-59
2022/07/28 06:59:29;;;;;;;9.57;6.18;;;;;;;;;;4246849;33;20456;-59
2022/07/28 07:02:00;;;;;;;10.57;6.53;;;;;;;;;;4247438;33;20211;-60
2022/07/28 07:04:27;;;;;;;11.98;7.53;;;;;;;;;;4246866;33;20449;-60
2022/07/28 07:06:53;;;;;;;10.07;6.15;;;;;;;;;;4247082;33;20532;-59
2022/07/28 07:09:19;;;;;;;9.07;6.05;;;;;;;;;;4233996;33;20091;-63
2022/07/28 07:11:45;;;;;;;7.32;5.97;;;;;;;;;;4247335;33;20147;-61
2022/07/28 07:14:11;;;;;;;11.52;7.25;;;;;;;;;;4246908;33;20528;-61
2022/07/28 07:16:37;;;;;;;8.52;5.95;;;;;;;;;;4247305;33;20131;-63
2022/07/28 07:19:03;;;;;;;12.35;6.55;;;;;;;;;;4246863;33;20140;-63
2022/07/28 07:21:29;;;;;;;8.20;6.47;;;;;;;;;;4233901;33;20206;-63
2022/07/28 07:23:55;;;;;;;9.98;7.03;;;;;;;;;;4246976;33;20097;-66
2022/07/28 07:26:21;;;;;;;7.57;6.47;;;;;;;;;;4247028;33;20116;-65
2022/07/28 07:28:47;;;;;;;9.30;6.07;;;;;;;;;;4246731;33;20199;-64
2022/07/28 07:31:13;;;;;;;11.15;6.72;;;;;;;;;;4247190;33;20531;-67
2022/07/28 07:33:39;;;;;;;10.32;6.80;;;;;;;;;;4233495;33;20227;-67
2022/07/28 07:36:05;;;;;;;9.32;6.90;;;;;;;;;;4233619;33;20207;-63
2022/07/28 07:38:31;;;;;;;6.47;5.25;;;;;;;;;;4222099;33;20440;-63
2022/07/28 07:40:58;;;;;;;9.95;6.37;;;;;;;;;;4246912;33;20120;-66
2022/07/28 07:43:24;;;;;;;6.50;4.78;;;;;;;;;;4233519;33;20186;-67
2022/07/28 07:45:50;;;;;;;7.85;6.22;;;;;;;;;;4246842;33;20176;-66
2022/07/28 07:48:16;;;;;;;7.35;5.65;;;;;;;;;;4221971;33;20191;-64
2022/07/28 07:50:43;;;;;;;8.60;6.40;;;;;;;;;;4233878;33;20100;-66
2022/07/28 07:53:09;;;;;;;7.80;5.95;;;;;;;;;;4233892;33;20460;-65
2022/07/28 07:55:35;;;;;;;9.00;5.87;;;;;;;;;;4246584;33;20157;-65
2022/07/28 07:58:01;;;;;;;6.50;4.85;;;;;;;;;;4246698;33;20112;-68
2022/07/28 08:00:27;;;;;;;6.95;5.45;;;;;;;;;;4233351;33;20100;-67
2022/07/28 08:02:53;;;;;;;8.52;6.40;;;;;;;;;;4246658;33;20128;-63
2022/07/28 08:05:19;;;;;;;9.20;6.00;;;;;;;;;;4246345;33;20093;-63
2022/07/28 08:07:45;;;;;;;10.30;5.28;;;;;;;;;;4246515;33;20135;-63
2022/07/28 08:10:11;;;;;;;6.80;5.80;;;;;;;;;;4232686;33;20089;-63
2022/07/28 08:12:38;;;;;;;6.25;5.60;;;;;;;;;;4246468;33;20568;-62
2022/07/28 08:15:05;;;;;;;5.05;3.17;;;;;;;;;;4246245;33;20099;-62
2022/07/28 08:17:31;;;;;;;8.00;5.95;;;;;;;;;;4246496;33;20171;-63
2022/07/28 08:19:57;;;;;;;12.02;6.25;;;;;;;;;;4246715;33;20120;-62
2022/07/28 08:22:23;;;;;;;7.53;6.07;;;;;;;;;;4246690;33;20211;-63
2022/07/28 08:24:50;;;;;;;8.43;6.15;;;;;;;;;;4246167;33;20117;-63
2022/07/28 08:27:16;;;;;;;6.43;5.50;;;;;;;;;;4246282;33;20108;-64
2022/07/28 08:29:42;;;;;;;6.70;5.53;;;;;;;;;;4246538;33;20188;-62
2022/07/28 08:32:08;;;;;;;6.80;4.90;;;;;;;;;;4246623;33;20211;-63
2022/07/28 08:34:35;;;;;;;8.77;5.50;;;;;;;;;;4233110;33;20207;-63
2022/07/28 08:37:03;;;;;;;8.65;5.00;;;;;;;;;;4246298;33;20724;-63
2022/07/28 08:39:30;;;;;;;6.72;4.93;;;;;;;;;;4232968;33;20136;-63
2022/07/28 08:41:57;;;;;;;6.87;5.30;;;;;;;;;;4246230;33;20136;-63
2022/07/28 08:44:27;;;;;;;6.68;5.82;;;;;;;;;;4221211;33;20120;-63
2022/07/28 08:46:53;;;;;;;7.12;4.78;;;;;;;;;;4245883;33;20508;-62
2022/07/28 08:49:20;;;;;;;10.65;6.65;;;;;;;;;;4232699;33;20196;-63
2022/07/28 08:51:47;;;;;;;7.12;5.62;;;;;;;;;;4232042;33;20124;-63
2022/07/28 08:54:20;;;;;;;10.98;6.28;;;;;;;;;;4245582;33;20109;-64
2022/07/28 08:56:46;;;;;;;7.07;5.28;;;;;;;;;;4241660;33;20204;-64
2022/07/28 08:59:13;;;;;;;6.10;4.45;;;;;;;;;;4228163;33;20540;-64
2022/07/28 09:01:39;;;;;;;6.78;4.87;;;;;;;;;;4228376;33;20116;-63
2022/07/28 09:04:07;;;;;;;7.25;4.97;;;;;;;;;;4241486;33;20617;-63
2022/07/28 09:06:33;;;;;;;8.05;5.93;;;;;;;;;;4241689;33;20112;-63
2022/07/28 09:08:59;;;;;;;8.52;5.87;;;;;;;;;;4228114;33;20123;-62
2022/07/28 09:11:28;;;;;;;13.13;5.00;;;;;;;;;;4228308;33;20105;-64
2022/07/28 09:13:54;;;;;;;10.05;5.65;;;;;;;;;;4227804;33;20551;-61
2022/07/28 09:16:21;;;;;;;9.35;5.95;;;;;;;;;;4241748;33;20123;-63
2022/07/28 09:18:47;;;;;;;6.97;5.40;;;;;;;;;;4229185;33;20124;-63
2022/07/28 09:21:14;;;;;;;9.20;5.22;;;;;;;;;;4242694;33;20220;-63
2022/07/28 09:23:44;;;;;;;5.65;4.87;;;;;;;;;;4243729;33;20941;-63
2022/07/28 09:26:11;;;;;;;7.15;5.47;;;;;;;;;;4247504;33;20087;-63
2022/07/28 09:28:57;;;;;;;5.90;5.28;;;;;;;;;;4247834;33;20085;-64
2022/07/28 09:31:24;;;;;;;6.12;5.12;;;;;;;;;;4247480;33;20173;-64
2022/07/28 09:33:53;;;;;;;6.53;4.80;;;;;;;;;;4247179;33;20105;-63
2022/07/28 09:36:19;;;;;;;12.77;5.75;;;;;;;;;;4245806;33;20104;-64
2022/07/28 09:38:46;;;;;;;10.23;5.90;;;;;;;;;;4247540;33;20493;-65
2022/07/28 09:41:13;;;;;;;7.35;4.85;;;;;;;;;;4234385;33;20124;-62
2022/07/28 09:43:43;;;;;;;6.85;5.78;;;;;;;;;;4234852;33;20233;-62
2022/07/28 09:46:14;;;;;;;7.72;4.97;;;;;;;;;;4247417;33;20187;-62
2022/07/28 09:48:49;;;;;;;6.25;4.62;;;;;;;;;;4247201;33;20108;-63
2022/07/28 09:51:23;;;;;;;8.70;5.45;;;;;;;;;;4247736;33;20142;-63
2022/07/28 09:53:50;;;;;;;7.28;4.97;;;;;;;;;;4247530;33;20487;-63
2022/07/28 09:56:17;;;;;;;12.25;4.70;;;;;;;;;;4247563;33;20101;-63
2022/07/28 09:59:02;;;;;;;2.05;1.85;;;;;;;;;;4247639;33;20548;-62
2022/07/28 10:01:28;;;;;;;7.37;5.53;;;;;;;;;;4247592;33;20468;-64
2022/07/28 10:03:56;;;;;;;11.07;5.75;;;;;;;;;;4247453;33;20170;-64
2022/07/28 10:06:27;;;;;;;6.97;4.60;;;;;;;;;;4247081;33;20123;-61
2022/07/28 10:08:58;;;;;;;6.10;3.80;;;;;;;;;;4247359;33;20139;-60
2022/07/28 10:11:26;;;;;;;8.65;4.57;;;;;;;;;;4247688;33;20136;-60
2022/07/28 10:13:54;;;;;;;5.60;4.80;;;;;;;;;;4247554;33;20496;-65
2022/07/28 10:16:24;;;;;;;6.03;3.33;;;;;;;;;;4245756;33;20243;-59
2022/07/28 10:18:50;;;;;;;6.22;4.68;;;;;;;;;;4233017;33;20097;-67
2022/07/28 10:21:19;;;;;;;2.42;2.17;;;;;;;;;;4222974;33;20108;-68
2022/07/28 10:23:50;;;;;;;3.42;2.85;;;;;;;;;;4223019;33;20116;-68
2022/07/28 10:26:17;;;;;;;6.18;4.50;;;;;;;;;;4234011;33;20512;-70
2022/07/28 10:28:47;;;;;;;8.30;5.70;;;;;;;;;;4198902;33;20105;-67
2022/07/28 10:31:19;;;;;;;2.90;2.22;;;;;;;;;;4247059;33;20516;-67
2022/07/28 10:33:47;;;;;;;4.30;3.20;;;;;;;;;;4198969;33;20177;-68
2022/07/28 10:36:17;;;;;;;1.80;1.70;;;;;;;;;;4234668;33;20115;-67
2022/07/28 10:38:43;;;;;;;1.15;1.15;;;;;;;;;;4234594;33;20093;-60
2022/07/28 10:41:10;;;;;;;2.20;2.00;;;;;;;;;;4222174;33;20112;-62
2022/07/28 10:43:37;;;;;;;4.60;3.70;;;;;;;;;;4221028;33;20107;-60
2022/07/28 10:46:04;;;;;;;5.53;4.35;;;;;;;;;;4234385;33;20117;-62
2022/07/28 10:48:30;;;;;;;9.48;5.55;;;;;;;;;;4233751;33;20442;-62
2022/07/28 10:50:58;;;;;;;6.25;4.97;;;;;;;;;;4246785;33;20104;-62
2022/07/28 10:53:36;;;;;;;5.85;4.57;;;;;;;;;;4246965;33;20187;-62
2022/07/28 10:56:08;;;;;;;6.35;3.17;;;;;;;;;;4246888;33;20101;-62
2022/07/28 10:58:46;;;;;;;6.10;4.75;;;;;;;;;;4228482;33;20090;-61
2022/07/28 11:01:33;;;;;;;6.90;5.50;;;;;;;;;;4209783;33;20485;-61
2022/07/28 11:04:00;;;;;;;8.77;4.60;;;;;;;;;;4206572;33;20112;-62
2022/07/28 11:06:38;;;;;;;7.57;4.53;;;;;;;;;;4233547;33;20192;-61
2022/07/28 11:09:16;;;;;;;9.45;4.90;;;;;;;;;;4219398;33;20112;-59
2022/07/28 11:11:57;;;;;;;2.33;1.80;;;;;;;;;;4222372;33;20501;-59
2022/07/28 11:14:26;;;;;;;1.65;1.55;;;;;;;;;;4226977;33;20109;-60
2022/07/28 11:17:04;;;;;;;3.20;2.15;;;;;;;;;;4222382;33;20473;-62
2022/07/28 11:19:42;;;;;;;8.35;6.00;;;;;;;;;;4246895;33;20113;-61
2022/07/28 11:22:18;;;;;;;3.05;2.75;;;;;;;;;;4247541;33;20113;-62
2022/07/28 11:24:56;;;;;;;6.20;4.65;;;;;;;;;;4222356;33;20181;-63
2022/07/28 11:27:49;;;;;;;17.75;2.25;;;;;;;;;;4222216;33;20199;-61
2022/07/28 11:30:18;;;;;;;5.78;4.90;;;;;;;;;;4244271;33;20123;-61
2022/07/28 11:32:50;;;;;;;1.98;1.67;;;;;;;;;;4246981;33;20124;-60
2022/07/28 11:35:21;;;;;;;2.33;2.12;;;;;;;;;;4233846;33;20491;-62
2022/07/28 11:38:02;;;;;;;3.90;2.25;;;;;;;;;;4247277;33;20123;-61
2022/07/28 11:40:48;;;;;;;3.70;2.90;;;;;;;;;;4246472;33;20127;-61
2022/07/28 11:43:20;;;;;;;1.95;1.77;;;;;;;;;;4246957;33;20197;-60
2022/07/28 11:45:46;;;;;;;2.15;2.00;;;;;;;;;;4246007;33;20141;-61
2022/07/28 11:48:12;;;;;;;6.87;5.22;;;;;;;;;;4246658;33;20472;-62
2022/07/28 11:50:38;;;;;;;1.77;1.67;;;;;;;;;;4246727;33;20105;-61
2022/07/28 11:53:05;;;;;;;2.17;1.67;;;;;;;;;;4246752;33;20117;-60
2022/07/28 11:55:32;;;;;;;3.65;2.78;;;;;;;;;;4246748;33;20119;-60
2022/07/28 11:58:02;;;;;;;9.05;5.47;;;;;;;;;;4246533;33;20192;-60
2022/07/28 12:00:28;;;;;;;3.12;2.15;;;;;;;;;;4246657;33;20196;-60
2022/07/28 12:02:55;;;;;;;3.12;2.42;;;;;;;;;;4246644;33;20100;-63
2022/07/28 12:05:21;;;;;;;4.55;3.40;;;;;;;;;;4233572;33;20127;-60
2022/07/28 12:07:49;;;;;;;5.18;3.62;;;;;;;;;;4246816;33;20524;-61
2022/07/28 12:10:34;;;;;;;4.40;2.70;;;;;;;;;;4233518;33;20208;-61
2022/07/28 12:13:06;;;;;;;3.80;2.60;;;;;;;;;;4246625;33;20480;-62
2022/07/28 12:15:33;;;;;;;3.65;2.83;;;;;;;;;;4246349;33;20192;-61
2022/07/28 12:18:00;;;;;;;11.50;5.30;;;;;;;;;;4246525;33;20496;-61
2022/07/28 12:20:33;;;;;;;2.58;2.37;;;;;;;;;;4246484;33;20093;-62
2022/07/28 12:23:06;;;;;;;4.62;2.87;;;;;;;;;;4246476;33;20104;-63
2022/07/28 12:25:43;;;;;;;3.53;2.97;;;;;;;;;;4246425;33;20111;-61
2022/07/28 12:28:14;;;;;;;2.17;1.60;;;;;;;;;;4246319;33;20093;-61
2022/07/28 12:30:40;;;;;;;2.80;2.42;;;;;;;;;;4246371;33;20664;-61
2022/07/28 12:33:21;;;;;;;5.70;4.45;;;;;;;;;;4246621;33;20108;-62
2022/07/28 12:35:49;;;;;;;7.05;3.20;;;;;;;;;;4246064;33;20204;-61
2022/07/28 12:38:15;;;;;;;4.37;2.30;;;;;;;;;;4233507;33;20753;-60
2022/07/28 12:40:43;;;;;;;2.10;1.95;;;;;;;;;;4233096;33;20208;-61
2022/07/28 12:43:09;;;;;;;2.85;2.35;;;;;;;;;;4246198;33;20168;-61
2022/07/28 12:45:44;;;;;;;2.45;2.03;;;;;;;;;;4245889;33;20128;-61
2022/07/28 12:48:12;;;;;;;8.10;3.87;;;;;;;;;;4246097;33;20112;-60
2022/07/28 12:50:39;;;;;;;1.98;1.77;;;;;;;;;;4245892;33;20218;-61
2022/07/28 12:53:09;;;;;;;2.25;1.90;;;;;;;;;;4246315;33;20200;-61
2022/07/28 12:55:36;;;;;;;3.22;2.25;;;;;;;;;;4245882;33;20107;-61
2022/07/28 12:58:04;;;;;;;5.97;3.97;;;;;;;;;;4247676;33;20107;-64
2022/07/28 13:00:32;;;;;;;3.03;2.72;;;;;;;;;;4234774;33;20245;-60
2022/07/28 13:03:00;;;;;;;2.95;2.40;;;;;;;;;;4248139;33;20120;-61
2022/07/28 13:05:31;;;;;;;3.40;2.62;;;;;;;;;;4248097;33;20120;-62
2022/07/28 13:08:01;;;;;;;4.90;2.75;;;;;;;;;;4248144;33;20109;-62
2022/07/28 13:10:29;;;;;;;3.25;2.95;;;;;;;;;;4248120;33;20123;-62
2022/07/28 13:13:03;;;;;;;2.72;2.50;;;;;;;;;;4247986;33;20187;-62
2022/07/28 13:15:29;;;;;;;2.72;2.33;;;;;;;;;;4247891;33;20500;-61
2022/07/28 13:17:56;;;;;;;12.93;4.10;;;;;;;;;;4247988;33;20089;-62
2022/07/28 13:20:23;;;;;;;2.53;2.33;;;;;;;;;;4248127;33;20124;-61
2022/07/28 13:22:51;;;;;;;4.20;2.60;;;;;;;;;;4247982;33;20527;-61
2022/07/28 13:25:17;;;;;;;2.47;1.85;;;;;;;;;;4248073;33;20118;-62
2022/07/28 13:27:43;;;;;;;5.40;3.70;;;;;;;;;;4247810;33;20615;-65
2022/07/28 13:30:10;;;;;;;3.25;2.40;;;;;;;;;;4248117;33;20125;-62
2022/07/28 13:32:36;;;;;;;3.08;2.60;;;;;;;;;;4235055;33;20116;-61
2022/07/28 13:35:03;;;;;;;3.05;2.25;;;;;;;;;;4247827;33;20532;-61
2022/07/28 13:37:30;;;;;;;4.82;3.55;;;;;;;;;;4234550;33;21029;-61
2022/07/28 13:39:56;;;;;;;3.37;2.25;;;;;;;;;;4247829;33;20131;-60
2022/07/28 13:42:22;;;;;;;4.25;3.78;;;;;;;;;;4247674;33;20550;-60
2022/07/28 13:44:48;;;;;;;6.47;5.28;;;;;;;;;;4234964;33;20120;-61
2022/07/28 13:47:14;;;;;;;2.25;2.08;;;;;;;;;;4247642;33;20135;-61
2022/07/28 13:49:40;;;;;;;5.37;3.87;;;;;;;;;;4234674;33;20611;-61
2022/07/28 13:52:07;;;;;;;2.53;2.33;;;;;;;;;;4247707;33;20203;-61
2022/07/28 13:54:33;;;;;;;4.00;2.58;;;;;;;;;;4247886;33;20191;-61
2022/07/28 13:56:59;;;;;;;9.52;5.00;;;;;;;;;;4247721;33;20587;-62
2022/07/28 13:59:25;;;;;;;5.82;3.55;;;;;;;;;;4247621;33;20111;-62
2022/07/28 14:01:51;;;;;;;1.80;1.70;;;;;;;;;;4247607;33;20116;-62
2022/07/28 14:04:17;;;;;;;2.50;2.28;;;;;;;;;;4247654;33;20117;-61
2022/07/28 14:06:44;;;;;;;3.80;3.22;;;;;;;;;;4247404;33;20108;-60
2022/07/28 14:09:11;;;;;;;3.12;2.53;;;;;;;;;;4247052;33;20942;-60
2022/07/28 14:11:38;;;;;;;3.90;2.55;;;;;;;;;;4247607;33;20826;-62
2022/07/28 14:14:04;;;;;;;4.20;3.55;;;;;;;;;;4247485;33;20104;-61
2022/07/28 14:16:30;;;;;;;3.45;2.55;;;;;;;;;;4247418;33;20440;-60
2022/07/28 14:18:57;;;;;;;3.40;2.58;;;;;;;;;;4247813;33;20457;-61
2022/07/28 14:21:23;;;;;;;7.05;4.43;;;;;;;;;;4234446;33;20105;-63
2022/07/28 14:23:50;;;;;;;3.87;2.55;;;;;;;;;;4247729;33;20524;-60
2022/07/28 14:26:16;;;;;;;3.97;2.40;;;;;;;;;;4247625;33;20136;-62
2022/07/28 14:28:42;;;;;;;2.78;2.35;;;;;;;;;;4247291;33;20097;-58
2022/07/28 14:31:08;;;;;;;3.17;2.87;;;;;;;;;;4234365;33;20113;-61
2022/07/28 14:33:34;;;;;;;10.15;4.62;;;;;;;;;;4247262;33;20098;-62
2022/07/28 14:36:00;;;;;;;6.20;3.37;;;;;;;;;;4247226;33;20111;-61
2022/07/28 14:38:26;;;;;;;3.05;2.33;;;;;;;;;;4247411;33;20126;-62
2022/07/28 14:40:52;;;;;;;4.12;3.47;;;;;;;;;;4247350;33;20528;-62
2022/07/28 14:43:18;;;;;;;6.95;4.40;;;;;;;;;;4247114;33;20113;-63
2022/07/28 14:45:45;;;;;;;7.25;4.28;;;;;;;;;;4232496;33;20104;-61
2022/07/28 14:48:11;;;;;;;6.18;3.92;;;;;;;;;;4246498;33;20612;-62
2022/07/28 14:50:37;;;;;;;7.10;4.25;;;;;;;;;;4246696;33;20101;-59
2022/07/28 14:53:03;;;;;;;9.60;5.43;;;;;;;;;;4246815;33;20088;-61
2022/07/28 14:55:30;;;;;;;5.07;3.22;;;;;;;;;;4246813;33;20255;-59
2022/07/28 14:57:57;;;;;;;5.90;4.10;;;;;;;;;;4247159;33;20201;-58
2022/07/28 15:00:24;;;;;;;6.03;4.62;;;;;;;;;;4247421;33;20112;-59
2022/07/28 15:02:51;;;;;;;4.07;3.20;;;;;;;;;;4247023;33;20104;-60
2022/07/28 15:05:18;;;;;;;9.82;3.47;;;;;;;;;;4246595;33;20121;-63
2022/07/28 15:07:47;;;;;;;7.32;4.78;;;;;;;;;;4243275;33;20474;-61
2022/07/28 15:10:13;;;;;;;7.15;4.85;;;;;;;;;;4243059;33;20116;-60
2022/07/28 15:12:39;;;;;;;6.37;5.25;;;;;;;;;;4242640;33;20561;-61
2022/07/28 15:15:06;;;;;;;9.50;6.12;;;;;;;;;;4242984;33;20135;-61
2022/07/28 15:17:32;;;;;;;6.70;3.67;;;;;;;;;;4246166;33;20124;-60
2022/07/28 15:19:58;;;;;;;10.75;5.60;;;;;;;;;;4244643;33;20242;-60
2022/07/28 15:22:24;;;;;;;12.13;5.30;;;;;;;;;;4243613;33;20128;-59
2022/07/28 15:24:50;;;;;;;6.47;4.95;;;;;;;;;;4243805;33;20215;-62
2022/07/28 15:27:16;;;;;;;18.60;6.47;;;;;;;;;;4230350;33;20204;-62
2022/07/28 15:29:42;;;;;;;21.35;4.95;;;;;;;;;;4243759;33;20140;-63
2022/07/28 15:32:09;;;;;;;5.70;3.67;;;;;;;;;;4243867;33;20107;-62
2022/07/28 15:34:35;;;;;;;11.57;6.05;;;;;;;;;;4227782;33;20133;-62
2022/07/28 15:37:01;;;;;;;11.63;5.93;;;;;;;;;;4240059;33;20834;-63
2022/07/28 15:39:27;;;;;;;6.57;4.50;;;;;;;;;;4241412;33;20119;-64
2022/07/28 15:41:53;;;;;;;13.85;6.32;;;;;;;;;;4228026;33;20132;-61
2022/07/28 15:44:20;;;;;;;8.07;5.72;;;;;;;;;;4241724;33;20212;-60
2022/07/28 15:46:46;;;;;;;7.85;5.85;;;;;;;;;;4241345;33;20104;-62
2022/07/28 15:49:12;;;;;;;9.05;5.80;;;;;;;;;;4245605;33;20136;-63
2022/07/28 15:51:38;;;;;;;8.32;6.47;;;;;;;;;;4245301;33;20607;-63
2022/07/28 15:54:05;;;;;;;10.32;6.82;;;;;;;;;;4245487;33;20116;-63
2022/07/28 15:56:33;;;;;;;11.05;6.50;;;;;;;;;;4232081;33;20101;-63
2022/07/28 15:59:00;;;;;;;12.55;6.30;;;;;;;;;;4245480;33;20508;-63
2022/07/28 16:01:26;;;;;;;10.35;6.43;;;;;;;;;;4232315;33;20540;-62
2022/07/28 16:03:53;;;;;;;13.82;7.07;;;;;;;;;;4245440;33;20117;-62
2022/07/28 16:06:20;;;;;;;8.15;6.00;;;;;;;;;;4245368;33;20119;-64
2022/07/28 16:08:46;;;;;;;9.25;5.85;;;;;;;;;;4232532;33;20108;-59
2022/07/28 16:11:12;;;;;;;10.52;7.47;;;;;;;;;;4246081;33;20202;-65
2022/07/28 16:13:38;;;;;;;11.77;7.28;;;;;;;;;;4232382;33;20171;-62
2022/07/28 16:16:10;;;;;;;10.20;6.07;;;;;;;;;;4246013;33;20113;-62
2022/07/28 16:18:38;;;;;;;8.65;6.40;;;;;;;;;;4210022;33;20108;-62
2022/07/28 16:21:05;;;;;;;11.50;6.68;;;;;;;;;;4246400;33;20119;-62
2022/07/28 16:23:32;;;;;;;10.00;6.22;;;;;;;;;;4245261;33;20099;-62
2022/07/28 16:25:58;;;;;;;12.07;6.97;;;;;;;;;;4245382;33;20132;-61
2022/07/28 16:28:25;;;;;;;14.82;7.47;;;;;;;;;;4219415;33;20115;-62
2022/07/28 16:30:53;;;;;;;9.30;5.82;;;;;;;;;;4209688;33;20563;-62
2022/07/28 16:33:19;;;;;;;10.07;6.55;;;;;;;;;;4245321;33;20206;-62
2022/07/28 16:35:45;;;;;;;13.25;8.10;;;;;;;;;;4245043;33;20109;-63
2022/07/28 16:38:11;;;;;;;15.98;6.65;;;;;;;;;;4244620;33;20138;-62
2022/07/28 16:40:38;;;;;;;9.02;6.47;;;;;;;;;;4246409;33;20135;-63
2022/07/28 16:43:05;;;;;;;16.08;7.50;;;;;;;;;;4245276;33;20109;-62
2022/07/28 16:45:33;;;;;;;13.32;7.45;;;;;;;;;;4245192;33;20145;-62
2022/07/28 16:48:01;;;;;;;12.23;7.28;;;;;;;;;;4243146;33;20191;-62
2022/07/28 16:50:28;;;;;;;14.50;8.23;;;;;;;;;;4245483;33;20215;-67
2022/07/28 16:52:55;;;;;;;10.13;7.18;;;;;;;;;;4245114;33;20192;-62
2022/07/28 16:55:23;;;;;;;15.10;7.50;;;;;;;;;;4244861;33;20121;-66
2022/07/28 16:57:49;;;;;;;10.57;7.43;;;;;;;;;;4243732;33;20112;-61
2022/07/28 17:00:15;;;;;;;11.70;7.35;;;;;;;;;;4231640;33;20097;-63
2022/07/28 17:02:41;;;;;;;17.58;7.90;;;;;;;;;;4231481;33;20101;-62
2022/07/28 17:05:09;;;;;;;13.55;7.55;;;;;;;;;;4244138;33;20520;-62
2022/07/28 17:07:40;;;;;;;15.93;8.55;;;;;;;;;;4244577;33;20123;-62
2022/07/28 17:10:10;;;;;;;16.23;7.62;;;;;;;;;;4231554;33;20112;-70
2022/07/28 17:12:37;;;;;;;18.52;8.52;;;;;;;;;;4245069;33;20133;-60
2022/07/28 17:15:04;;;;;;;10.80;7.60;;;;;;;;;;4242941;33;20121;-61
2022/07/28 17:17:30;;;;;;;13.95;7.80;;;;;;;;;;4244727;33;20104;-60
2022/07/28 17:19:56;;;;;;;14.35;8.50;;;;;;;;;;4244266;33;20142;-60
2022/07/28 17:22:21;;;;;;;10.52;8.45;;;;;;;;;;4243593;33;20105;-62
2022/07/28 17:24:48;;;;;;;14.75;7.50;;;;;;;;;;4243527;33;20092;-60
2022/07/28 17:27:14;;;;;;;11.82;8.32;;;;;;;;;;4220269;33;20105;-60
2022/07/28 17:29:44;;;;;;;14.27;7.87;;;;;;;;;;4219915;33;20108;-60
2022/07/28 17:32:10;;;;;;;12.27;7.97;;;;;;;;;;4208424;33;20135;-60
2022/07/28 17:34:36;;;;;;;12.65;7.72;;;;;;;;;;4203456;33;20097;-59
2022/07/28 17:37:04;;;;;;;15.68;9.57;;;;;;;;;;4208394;33;20113;-59
2022/07/28 17:39:31;;;;;;;23.92;9.05;;;;;;;;;;4203942;33;20195;-61
2022/07/28 17:41:58;;;;;;;14.52;7.30;;;;;;;;;;4209217;33;20110;-68
2022/07/28 17:44:24;;;;;;;11.10;7.28;;;;;;;;;;4208441;33;20117;-68
2022/07/28 17:46:51;;;;;;;11.30;7.20;;;;;;;;;;4211200;33;20092;-66
2022/07/28 17:49:17;;;;;;;12.80;6.87;;;;;;;;;;4211499;33;20093;-66
2022/07/28 17:51:43;;;;;;;12.43;7.00;;;;;;;;;;4248015;33;20213;-65
2022/07/28 17:54:12;;;;;;;13.32;7.47;;;;;;;;;;4216360;33;20216;-65
2022/07/28 17:56:40;;;;;;;14.75;7.22;;;;;;;;;;4227162;33;20198;-59
2022/07/28 17:59:07;;;;;;;13.07;7.18;;;;;;;;;;4223445;33;20104;-59
2022/07/28 18:01:33;;;;;;;13.32;7.47;;;;;;;;;;4210361;33;20646;-61
2022/07/28 18:03:59;;;;;;;12.32;7.12;;;;;;;;;;4244237;33;20097;-62
2022/07/28 19:14:32;;;;;;;7.60;5.90;;;;;;;;;;4954510;28;20143;-75
2022/07/28 19:17:00;;;;;;;11.48;5.80;;;;;;;;;;4236499;33;20116;-74
2022/07/28 19:19:26;;;;;;;14.98;5.72;;;;;;;;;;4232665;33;20488;-68
2022/07/28 19:21:52;;;;;;;9.90;6.00;;;;;;;;;;4232773;33;20148;-64
2022/07/28 19:24:18;;;;;;;13.68;5.95;;;;;;;;;;4208335;33;20117;-76
2022/07/28 19:26:46;;;;;;;10.95;5.95;;;;;;;;;;4205940;34;20185;-66
2022/07/28 19:29:12;;;;;;;9.35;6.18;;;;;;;;;;4206158;34;20125;-65
2022/07/28 19:31:40;;;;;;;15.38;6.97;;;;;;;;;;4192110;33;20118;-66
2022/07/28 19:34:06;;;;;;;13.88;6.70;;;;;;;;;;4215061;33;20464;-66
2022/07/28 19:36:32;;;;;;;14.18;6.57;;;;;;;;;;4220010;33;20556;-66
2022/07/28 19:38:58;;;;;;;11.32;7.37;;;;;;;;;;4233044;33;20584;-66
2022/07/28 19:41:25;;;;;;;16.75;7.05;;;;;;;;;;4233113;33;20117;-65
2022/07/28 19:43:51;;;;;;;17.35;7.15;;;;;;;;;;4219760;33;20111;-66
2022/07/28 19:46:17;;;;;;;13.23;6.60;;;;;;;;;;4233057;33;20121;-77
2022/07/28 19:48:43;;;;;;;6.97;5.45;;;;;;;;;;4232893;33;20109;-66
2022/07/28 19:51:10;;;;;;;9.45;5.47;;;;;;;;;;4219478;33;20125;-67
2022/07/28 19:53:36;;;;;;;8.95;5.25;;;;;;;;;;4208356;33;20225;-67
2022/07/28 19:56:04;;;;;;;13.27;6.65;;;;;;;;;;4219477;33;20111;-66
2022/07/28 19:58:30;;;;;;;7.05;5.65;;;;;;;;;;4232434;33;20093;-66
2022/07/28 20:00:57;;;;;;;9.27;6.22;;;;;;;;;;4207655;33;20140;-66
2022/07/28 20:03:23;;;;;;;16.05;6.10;;;;;;;;;;4219859;33;20176;-67
2022/07/28 20:05:49;;;;;;;13.15;5.97;;;;;;;;;;4219365;33;20116;-66
2022/07/28 20:08:15;;;;;;;9.45;6.22;;;;;;;;;;4218964;33;20520;-66
2022/07/28 20:10:41;;;;;;;11.45;6.05;;;;;;;;;;4232385;33;20109;-65
2022/07/28 20:13:08;;;;;;;10.73;6.10;;;;;;;;;;4232339;33;20101;-66
2022/07/28 20:15:35;;;;;;;11.05;6.05;;;;;;;;;;4219677;33;20449;-66
2022/07/28 20:18:01;;;;;;;10.07;5.97;;;;;;;;;;4207928;33;20535;-67
2022/07/28 20:20:27;;;;;;;9.98;6.22;;;;;;;;;;4219532;33;20101;-65
2022/07/28 20:22:53;;;;;;;8.38;6.00;;;;;;;;;;4232296;33;20148;-66
2022/07/28 20:25:19;;;;;;;9.38;5.85;;;;;;;;;;4232228;33;20175;-66
2022/07/28 20:27:45;;;;;;;9.68;6.10;;;;;;;;;;4219456;33;20155;-66
2022/07/28 20:30:12;;;;;;;9.68;6.72;;;;;;;;;;4232255;33;20109;-66
2022/07/28 20:32:39;;;;;;;9.02;6.18;;;;;;;;;;4219509;33;20129;-65
2022/07/28 20:35:06;;;;;;;9.02;6.40;;;;;;;;;;4219065;33;20100;-67
2022/07/28 20:37:32;;;;;;;12.27;5.75;;;;;;;;;;4219416;33;20117;-75
2022/07/28 20:39:58;;;;;;;11.43;6.00;;;;;;;;;;4232405;33;20223;-75
2022/07/28 20:42:24;;;;;;;11.68;5.93;;;;;;;;;;4232139;33;20513;-76
2022/07/28 20:44:51;;;;;;;9.40;6.00;;;;;;;;;;4232139;33;20109;-75
2022/07/28 20:47:18;;;;;;;6.22;5.40;;;;;;;;;;4232325;33;20524;-75
2022/07/28 20:49:44;;;;;;;11.90;6.53;;;;;;;;;;4232037;33;20125;-75
2022/07/28 20:52:10;;;;;;;7.35;5.22;;;;;;;;;;4232222;33;20440;-75
2022/07/28 20:54:35;;;;;;;7.53;5.37;;;;;;;;;;4232033;33;20143;-75
2022/07/28 20:57:01;;;;;;;14.68;5.90;;;;;;;;;;4218902;33;20215;-74
2022/07/28 20:59:27;;;;;;;9.82;5.32;;;;;;;;;;4231868;33;20139;-74
2022/07/28 21:01:54;;;;;;;6.95;5.25;;;;;;;;;;4231934;33;20152;-74